Terminal Aerodrome Forecast
Issued by NWS

Home | Current Version | Previous Version | Text Only | Print | Product List | Glossary On
Versions: 1 2 3 4 5 6 7 8 9 10 11 12 13
285
FTUS44 KBMX 091722
TAFEET
TAF
KEET 091722Z 0918/1018 35008KT P6SM SKC
     FM100000 34002KT P6SM SKC
     FM101500 04005KT P6SM SKC=

USA.gov is the U.S. government's official web portal to all federal, state and local government web resources and services.